Time;durP1;ratioP1;P1;durP2;ratioP2;P2;SDS_P1;SDS_P2;PMS_P1;PMS_P2;Temp;Humidity;BMP_temperature;BMP_pressure;BME280_temperature;BME280_humidity;BME280_pressure;Samples;Min_cycle;Max_cycle;Signal;HPM_P1;HPM_P2
2022/04/26 03:36:36;;;;;;;1.75;1.17;;;9.80;99.90;;;;;;5052507;28;20021;-74
2022/04/26 03:39:03;;;;;;;0.20;0.20;;;9.80;99.90;;;;;;5034922;28;20048;-74
2022/04/26 03:41:28;;;;;;;0.10;0.10;;;9.80;99.90;;;;;;5052705;28;20017;-74
2022/04/26 03:43:54;;;;;;;0.17;0.17;;;9.70;99.90;;;;;;5035073;28;20239;-74
2022/04/26 03:46:20;;;;;;;0.25;0.25;;;9.60;99.90;;;;;;5052318;28;20071;-74
2022/04/26 03:48:45;;;;;;;0.75;0.75;;;9.60;99.90;;;;;;5052687;28;20033;-74
2022/04/26 03:51:11;;;;;;;6.70;6.32;;;9.50;99.90;;;;;;5052586;28;20202;-74
2022/04/26 03:53:37;;;;;;;0.55;0.55;;;9.60;99.90;;;;;;5052459;28;20021;-74
2022/04/26 03:56:03;;;;;;;0.30;0.30;;;9.60;99.90;;;;;;5052023;28;20404;-74
2022/04/26 03:58:29;;;;;;;0.20;0.20;;;9.60;99.90;;;;;;5052622;28;20220;-74
2022/04/26 04:00:55;;;;;;;0.10;0.10;;;9.40;99.90;;;;;;5052433;28;20095;-74
2022/04/26 04:03:21;;;;;;;0.88;0.85;;;9.60;99.90;;;;;;5034511;28;20319;-74
2022/04/26 04:05:46;;;;;;;0.10;0.10;;;9.60;99.90;;;;;;5051806;28;20029;-74
2022/04/26 04:08:12;;;;;;;0.10;0.10;;;9.70;99.90;;;;;;5034589;28;20028;-74
2022/04/26 04:10:38;;;;;;;0.10;0.10;;;9.70;99.90;;;;;;5052253;28;20388;-74
2022/04/26 04:13:03;;;;;;;0.10;0.10;;;9.60;99.90;;;;;;5034375;28;20037;-74
2022/04/26 04:15:29;;;;;;;1.33;1.23;;;9.60;99.90;;;;;;5052019;28;20029;-75
2022/04/26 04:17:55;;;;;;;0.10;0.10;;;9.70;99.90;;;;;;5052019;28;20021;-75
2022/04/26 04:20:21;;;;;;;0.15;0.15;;;9.50;99.90;;;;;;5052236;28;20477;-74
2022/04/26 04:22:49;;;;;;;0.15;0.15;;;9.30;99.90;;;;;;5034211;28;20028;-75
2022/04/26 04:25:15;;;;;;;0.28;0.28;;;9.20;99.90;;;;;;5034209;28;20507;-74
2022/04/26 04:27:42;;;;;;;0.55;0.55;;;9.20;99.90;;;;;;5033932;28;20389;-75
2022/04/26 04:30:09;;;;;;;1.10;1.10;;;9.20;99.90;;;;;;5052197;28;20389;-74
2022/04/26 04:32:34;;;;;;;0.10;0.10;;;9.30;99.90;;;;;;5065817;22;20107;-71
2022/04/26 04:35:00;;;;;;;0.10;0.10;;;9.40;99.90;;;;;;5034053;28;20064;-71
2022/04/26 04:37:26;;;;;;;0.10;0.10;;;9.60;99.90;;;;;;5051576;28;20049;-71
2022/04/26 04:39:52;;;;;;;0.10;0.10;;;9.60;99.90;;;;;;5034148;28;20047;-70
2022/04/26 04:42:18;;;;;;;0.57;0.57;;;9.70;99.90;;;;;;5051989;28;20021;-71
2022/04/26 04:44:43;;;;;;;0.10;0.10;;;9.80;99.90;;;;;;5051002;28;20096;-71
2022/04/26 04:47:09;;;;;;;2.63;1.55;;;9.80;99.90;;;;;;5033692;28;20052;-70
2022/04/26 04:49:35;;;;;;;0.20;0.20;;;9.80;99.90;;;;;;5051780;28;20029;-70
2022/04/26 04:52:01;;;;;;;0.10;0.10;;;9.90;99.90;;;;;;5051801;28;20084;-71
2022/04/26 04:54:26;;;;;;;0.10;0.10;;;9.90;99.90;;;;;;5051772;28;20060;-72
2022/04/26 04:56:52;;;;;;;0.10;0.10;;;10.00;99.90;;;;;;5033686;28;20025;-71
2022/04/26 04:59:18;;;;;;;0.10;0.10;;;9.90;99.90;;;;;;5051780;28;20040;-72
2022/04/26 05:01:43;;;;;;;0.15;0.15;;;9.80;99.90;;;;;;5034105;28;20027;-72
2022/04/26 05:04:09;;;;;;;0.20;0.20;;;9.90;99.90;;;;;;5051770;28;20384;-72
2022/04/26 05:06:35;;;;;;;0.10;0.10;;;9.90;99.90;;;;;;5051579;28;20095;-72
2022/04/26 05:09:00;;;;;;;0.08;0.08;;;9.90;99.90;;;;;;5033800;28;20468;-72
2022/04/26 05:11:26;;;;;;;0.10;0.10;;;9.90;99.90;;;;;;5051746;28;20108;-71
2022/04/26 05:13:52;;;;;;;0.10;0.10;;;10.00;99.90;;;;;;5051691;28;20082;-72
2022/04/26 05:16:18;;;;;;;0.10;0.10;;;10.10;99.90;;;;;;5051512;28;20060;-73
2022/04/26 05:18:43;;;;;;;2.13;1.35;;;10.20;99.90;;;;;;5051484;28;20021;-73
2022/04/26 05:21:10;;;;;;;0.25;0.25;;;10.00;99.90;;;;;;5033712;28;20460;-71
2022/04/26 05:26:21;;;;;;;0.22;0.22;;;10.10;99.90;;;;;;5049658;28;20029;-72
2022/04/26 05:28:47;;;;;;;0.10;0.10;;;10.20;99.90;;;;;;5050383;28;20032;-72
2022/04/26 05:31:12;;;;;;;0.10;0.10;;;10.40;99.90;;;;;;5063343;28;20119;-72
2022/04/26 05:33:38;;;;;;;0.10;0.10;;;10.50;99.90;;;;;;5056628;28;20076;-72
2022/04/26 05:36:04;;;;;;;0.10;0.10;;;10.50;99.90;;;;;;5051312;28;20049;-72
2022/04/26 05:38:30;;;;;;;0.15;0.15;;;10.40;99.90;;;;;;5051319;28;20384;-71
2022/04/26 05:40:56;;;;;;;0.40;0.40;;;10.40;99.90;;;;;;5051063;28;20018;-72
2022/04/26 05:43:21;;;;;;;0.10;0.10;;;10.20;99.90;;;;;;5051231;28;20071;-72
2022/04/26 05:45:47;;;;;;;0.13;0.13;;;10.20;99.90;;;;;;5050849;28;20032;-72
2022/04/26 05:48:13;;;;;;;0.10;0.10;;;10.20;99.90;;;;;;5051233;28;20412;-72
2022/04/26 05:50:40;;;;;;;0.10;0.10;;;10.20;99.90;;;;;;5051130;28;20017;-72
2022/04/26 05:53:06;;;;;;;0.17;0.17;;;10.20;99.90;;;;;;5051159;28;20032;-72
2022/04/26 05:55:32;;;;;;;0.20;0.20;;;10.20;99.90;;;;;;5050849;28;20025;-72
2022/04/26 05:57:58;;;;;;;0.10;0.10;;;10.40;99.90;;;;;;5054283;28;20022;-72
2022/04/26 06:00:23;;;;;;;0.30;0.30;;;10.30;99.90;;;;;;5054683;28;20021;-72
2022/04/26 06:02:49;;;;;;;0.10;0.10;;;10.20;99.90;;;;;;5036986;28;20021;-72
2022/04/26 06:05:15;;;;;;;0.10;0.10;;;10.40;99.90;;;;;;5054624;28;20025;-72
2022/04/26 06:07:41;;;;;;;0.30;0.30;;;10.40;99.90;;;;;;5059708;28;20566;-72
2022/04/26 06:10:07;;;;;;;0.10;0.10;;;10.60;99.90;;;;;;5070396;28;20033;-72
2022/04/26 06:12:33;;;;;;;0.10;0.10;;;10.60;99.90;;;;;;5054995;28;20475;-72
2022/04/26 06:14:59;;;;;;;0.10;0.10;;;10.70;99.90;;;;;;5061997;28;20016;-72
2022/04/26 06:17:26;;;;;;;0.20;0.20;;;10.90;99.90;;;;;;5055947;28;20034;-72
2022/04/26 06:22:39;;;;;;;0.10;0.10;;;11.10;99.90;;;;;;5048103;28;20029;-72
2022/04/26 06:25:05;;;;;;;0.10;0.10;;;11.20;99.90;;;;;;5054571;28;20052;-72
2022/04/26 06:27:31;;;;;;;0.20;0.20;;;11.40;99.90;;;;;;5053947;28;20025;-72
2022/04/26 06:29:57;;;;;;;0.20;0.20;;;11.40;99.90;;;;;;5054148;28;20082;-72
2022/04/26 06:32:22;;;;;;;1.88;1.33;;;11.30;99.90;;;;;;5053959;28;20116;-72
2022/04/26 06:34:48;;;;;;;0.20;0.20;;;11.40;99.90;;;;;;5036208;28;20024;-72
2022/04/26 06:37:14;;;;;;;0.10;0.10;;;11.30;99.90;;;;;;5053437;28;20025;-72
2022/04/26 06:39:41;;;;;;;0.20;0.20;;;11.30;99.90;;;;;;5036434;28;20054;-72
2022/04/26 06:42:07;;;;;;;0.10;0.10;;;11.30;99.90;;;;;;5054000;28;20021;-72
2022/04/26 06:44:32;;;;;;;0.30;0.30;;;11.30;99.90;;;;;;5054006;28;20032;-72
2022/04/26 06:46:58;;;;;;;0.10;0.10;;;11.10;99.90;;;;;;5053556;28;20064;-72
2022/04/26 06:49:24;;;;;;;0.20;0.20;;;11.20;99.90;;;;;;5053770;28;20147;-72
2022/04/26 06:51:49;;;;;;;0.20;0.20;;;11.10;99.90;;;;;;5053638;28;20051;-72
2022/04/26 06:54:15;;;;;;;0.10;0.10;;;11.20;99.90;;;;;;5053871;28;20369;-72
2022/04/26 06:56:41;;;;;;;0.13;0.13;;;11.30;99.90;;;;;;5051833;28;20035;-72
2022/04/26 06:59:07;;;;;;;0.20;0.20;;;11.30;99.90;;;;;;5035782;28;20028;-73
2022/04/26 07:01:33;;;;;;;0.17;0.17;;;11.20;99.90;;;;;;5053226;28;20033;-74
2022/04/26 07:03:58;;;;;;;0.10;0.10;;;11.10;99.90;;;;;;5052736;28;20389;-74
2022/04/26 07:06:24;;;;;;;0.20;0.20;;;11.10;99.90;;;;;;5034900;28;20032;-74
2022/04/26 07:08:50;;;;;;;0.10;0.10;;;11.10;99.90;;;;;;5047604;28;20447;-74
2022/04/26 07:11:15;;;;;;;0.10;0.10;;;11.20;99.90;;;;;;5046863;28;20036;-73
2022/04/26 07:13:41;;;;;;;0.35;0.35;;;11.20;99.90;;;;;;5050653;28;20025;-73
2022/04/26 07:16:07;;;;;;;0.10;0.10;;;11.30;99.90;;;;;;5034153;28;20462;-74
2022/04/26 07:18:34;;;;;;;0.10;0.10;;;11.30;99.90;;;;;;5043636;28;20442;-74
2022/04/26 07:21:00;;;;;;;0.10;0.10;;;11.30;99.90;;;;;;5044611;28;20029;-74
2022/04/26 07:23:25;;;;;;;0.10;0.10;;;11.30;99.90;;;;;;5044942;28;20473;-74
2022/04/26 07:25:55;;;;;;;0.90;0.90;;;11.40;99.90;;;;;;5044722;28;20041;-74
2022/04/26 07:28:22;;;;;;;0.25;0.25;;;11.40;99.90;;;;;;5043799;28;20107;-74
2022/04/26 07:30:48;;;;;;;0.10;0.10;;;11.40;99.90;;;;;;5034611;28;20083;-74
2022/04/26 07:35:58;;;;;;;0.52;0.52;;;11.30;99.90;;;;;;5044588;28;20033;-74
2022/04/26 07:38:24;;;;;;;0.10;0.10;;;11.30;99.90;;;;;;5044318;28;20056;-74
2022/04/26 07:40:50;;;;;;;0.85;0.50;;;11.30;99.90;;;;;;5044991;28;20463;-74
2022/04/26 07:43:16;;;;;;;0.00;0.00;;;11.40;99.90;;;;;;5044512;28;20029;-74
2022/04/26 07:45:44;;;;;;;0.00;0.00;;;11.60;99.90;;;;;;5044474;28;20036;-74
2022/04/26 07:48:11;;;;;;;0.10;0.10;;;11.60;99.90;;;;;;5044072;28;20029;-74
2022/04/26 07:50:37;;;;;;;0.10;0.10;;;11.70;99.90;;;;;;5043999;28;20036;-74
2022/04/26 07:53:04;;;;;;;0.10;0.10;;;11.60;99.90;;;;;;5033634;28;20029;-74
2022/04/26 07:55:30;;;;;;;1.17;1.17;;;11.50;99.90;;;;;;5044507;28;20504;-74
2022/04/26 07:57:59;;;;;;;0.17;0.17;;;11.60;99.90;;;;;;5035165;28;20025;-74
2022/04/26 08:00:26;;;;;;;0.20;0.20;;;11.70;99.90;;;;;;5044492;28;20033;-74
2022/04/26 08:02:51;;;;;;;0.20;0.20;;;11.80;99.90;;;;;;5045061;28;20441;-74
2022/04/26 08:05:17;;;;;;;0.20;0.20;;;11.80;99.90;;;;;;5044935;28;20029;-74
2022/04/26 08:07:44;;;;;;;0.30;0.30;;;11.70;99.90;;;;;;5043337;28;20408;-74
2022/04/26 08:10:12;;;;;;;0.10;0.10;;;11.40;99.90;;;;;;5032819;28;20484;-73
2022/04/26 08:12:39;;;;;;;0.10;0.10;;;11.40;99.90;;;;;;5043057;28;21004;-74
2022/04/26 08:15:05;;;;;;;0.73;0.73;;;11.50;99.90;;;;;;5043692;28;20040;-74
2022/04/26 08:17:31;;;;;;;0.80;0.55;;;11.40;99.90;;;;;;5035260;28;20075;-74
2022/04/26 08:19:57;;;;;;;0.30;0.30;;;11.50;99.90;;;;;;5043524;28;20493;-74
2022/04/26 08:22:23;;;;;;;0.17;0.17;;;11.50;99.90;;;;;;5043149;28;20029;-74
2022/04/26 08:27:33;;;;;;;0.10;0.10;;;11.80;99.90;;;;;;5042602;28;20118;-74
2022/04/26 08:30:04;;;;;;;0.10;0.10;;;11.80;99.90;;;;;;5033035;28;20040;-74
2022/04/26 08:32:45;;;;;;;0.10;0.10;;;11.90;99.90;;;;;;5043876;28;20039;-74
2022/04/26 08:35:14;;;;;;;0.10;0.10;;;11.80;99.90;;;;;;5043355;28;20033;-74
2022/04/26 08:37:39;;;;;;;0.20;0.20;;;11.80;99.90;;;;;;5043408;28;20029;-74
2022/04/26 08:40:08;;;;;;;0.03;0.03;;;12.00;99.90;;;;;;5032337;28;20025;-74
2022/04/26 08:42:36;;;;;;;0.38;0.38;;;12.20;99.90;;;;;;5044216;28;20075;-74
2022/04/26 08:45:04;;;;;;;0.10;0.10;;;12.20;99.90;;;;;;5033267;28;20511;-74
2022/04/26 08:52:58;;;;;;;0.32;0.32;;;12.20;99.90;;;;;;5028836;28;20037;-74
2022/04/26 08:55:25;;;;;;;0.47;0.47;;;12.00;99.90;;;;;;5031882;28;20681;-73
2022/04/26 08:57:51;;;;;;;0.63;0.55;;;11.90;99.90;;;;;;5041785;28;20029;-75
2022/04/26 09:00:17;;;;;;;0.10;0.10;;;12.00;99.90;;;;;;5042060;28;20025;-74
2022/04/26 09:02:43;;;;;;;0.80;0.73;;;12.00;99.90;;;;;;5031317;28;20040;-74
2022/04/26 09:05:12;;;;;;;0.10;0.10;;;12.10;99.90;;;;;;5042092;28;20420;-74
2022/04/26 09:07:39;;;;;;;0.20;0.20;;;12.10;99.90;;;;;;5041968;28;20459;-74
2022/04/26 09:10:25;;;;;;;0.10;0.10;;;12.10;99.90;;;;;;5041353;28;20359;-74
2022/04/26 09:13:15;;;;;;;0.20;0.15;;;12.00;99.90;;;;;;5041058;28;20516;-74
2022/04/26 09:15:47;;;;;;;0.20;0.20;;;11.90;99.90;;;;;;5040776;28;20025;-74
2022/04/26 09:18:17;;;;;;;0.30;0.30;;;12.00;99.90;;;;;;5041590;28;20033;-74
2022/04/26 09:20:44;;;;;;;0.25;0.25;;;12.00;99.90;;;;;;5041209;28;20029;-73
2022/04/26 09:23:27;;;;;;;0.30;0.30;;;12.00;99.90;;;;;;5031658;28;20025;-73
2022/04/26 09:26:06;;;;;;;0.10;0.10;;;12.00;99.90;;;;;;5040474;28;20033;-73
2022/04/26 09:28:32;;;;;;;0.15;0.15;;;12.10;99.90;;;;;;5014574;28;20068;-73
2022/04/26 09:30:57;;;;;;;0.10;0.10;;;12.20;99.90;;;;;;5041606;28;20071;-74
2022/04/26 09:33:32;;;;;;;0.20;0.20;;;12.00;99.90;;;;;;5045524;28;20037;-74
2022/04/26 09:36:03;;;;;;;0.20;0.20;;;12.00;99.90;;;;;;5043226;28;20040;-74
2022/04/26 09:38:34;;;;;;;0.10;0.10;;;12.10;99.90;;;;;;5035257;28;20029;-74
2022/04/26 09:41:10;;;;;;;0.10;0.10;;;12.10;99.90;;;;;;5043711;28;20334;-74
2022/04/26 09:43:36;;;;;;;0.10;0.10;;;12.20;99.90;;;;;;5044186;28;20041;-73
2022/04/26 09:46:04;;;;;;;0.10;0.10;;;12.30;99.90;;;;;;5044473;28;20044;-73
2022/04/26 09:48:38;;;;;;;2.63;2.45;;;12.50;99.90;;;;;;5035068;28;20525;-74
2022/04/26 09:51:08;;;;;;;0.20;0.20;;;12.60;99.90;;;;;;5034179;28;20136;-74
2022/04/26 09:53:35;;;;;;;0.10;0.10;;;12.60;99.90;;;;;;5044640;28;20033;-74
2022/04/26 09:56:02;;;;;;;0.10;0.10;;;12.50;99.90;;;;;;5034667;28;20029;-74
2022/04/26 09:58:29;;;;;;;0.10;0.10;;;12.60;99.90;;;;;;5046128;28;20104;-74
2022/04/26 10:01:01;;;;;;;1.10;0.52;;;12.50;99.90;;;;;;5020660;28;20028;-74
2022/04/26 10:03:34;;;;;;;0.10;0.10;;;12.30;99.90;;;;;;5046803;28;21019;-74
2022/04/26 10:06:06;;;;;;;0.10;0.10;;;12.30;99.90;;;;;;5046657;28;20033;-72
2022/04/26 10:08:37;;;;;;;0.20;0.20;;;12.40;99.90;;;;;;5044309;28;20589;-72
2022/04/26 10:11:04;;;;;;;2.28;0.68;;;12.50;99.90;;;;;;5015568;28;20041;-72
2022/04/26 10:13:32;;;;;;;0.10;0.10;;;12.10;99.90;;;;;;5042419;28;20036;-72
2022/04/26 10:16:05;;;;;;;0.10;0.10;;;12.00;99.90;;;;;;5041526;28;20120;-72
2022/04/26 10:18:33;;;;;;;0.30;0.30;;;12.00;99.90;;;;;;5031029;28;20452;-72
2022/04/26 10:21:00;;;;;;;0.10;0.10;;;12.00;99.90;;;;;;5041248;28;20165;-72
2022/04/26 10:23:26;;;;;;;0.10;0.10;;;12.00;99.90;;;;;;5042148;28;20025;-73
2022/04/26 10:26:11;;;;;;;0.10;0.10;;;12.00;99.90;;;;;;5040394;28;20460;-72
2022/04/26 10:28:53;;;;;;;0.10;0.10;;;11.80;99.90;;;;;;5032881;28;20029;-72
2022/04/26 10:31:33;;;;;;;;;;;11.90;99.90;;;;;;5031269;28;20460;-72
2022/04/26 10:33:59;;;;;;;0.20;0.20;;;12.00;99.90;;;;;;5040882;28;19920;-72
2022/04/26 10:36:31;;;;;;;0.17;0.17;;;12.10;99.90;;;;;;5041172;28;20029;-72
2022/04/26 10:39:05;;;;;;;0.10;0.10;;;12.20;99.90;;;;;;5042112;28;20033;-72
2022/04/26 10:41:38;;;;;;;0.10;0.10;;;12.40;99.90;;;;;;5030005;28;20136;-72
2022/04/26 10:44:40;;;;;;;0.20;0.20;;;12.50;99.90;;;;;;5041986;28;20083;-72
2022/04/26 10:47:06;;;;;;;1.65;0.57;;;12.70;99.90;;;;;;5041145;28;20029;-73
2022/04/26 10:49:32;;;;;;;0.10;0.10;;;12.80;99.90;;;;;;5040784;28;20099;-73
2022/04/26 10:52:22;;;;;;;0.10;0.10;;;12.70;99.90;;;;;;5040057;28;20025;-72
2022/04/26 10:55:03;;;;;;;0.10;0.10;;;12.80;99.90;;;;;;5041542;28;20028;-72
2022/04/26 10:57:44;;;;;;;0.10;0.10;;;12.70;99.90;;;;;;5041186;28;20751;-72
2022/04/26 11:00:17;;;;;;;0.10;0.10;;;12.60;99.90;;;;;;5031837;28;20036;-72
2022/04/26 11:02:48;;;;;;;0.38;0.25;;;12.50;99.90;;;;;;5031307;28;20075;-72
2022/04/26 11:05:17;;;;;;;0.20;0.20;;;12.30;99.90;;;;;;5040549;28;20274;-72
2022/04/26 11:07:46;;;;;;;0.20;0.20;;;12.30;99.90;;;;;;5041546;28;20074;-72
2022/04/26 11:10:14;;;;;;;0.40;0.40;;;12.30;99.90;;;;;;5041242;28;21263;-72
2022/04/26 11:12:40;;;;;;;0.10;0.10;;;12.30;99.90;;;;;;5032533;28;20032;-72
2022/04/26 11:15:19;;;;;;;0.20;0.20;;;12.40;99.90;;;;;;5040965;28;20044;-72
2022/04/26 11:17:45;;;;;;;0.10;0.10;;;12.30;99.90;;;;;;5030080;28;20099;-72
2022/04/26 11:20:14;;;;;;;0.10;0.10;;;12.10;99.90;;;;;;5031046;28;20465;-72
2022/04/26 11:22:47;;;;;;;0.20;0.20;;;12.00;99.90;;;;;;5040755;28;20503;-72
2022/04/26 11:28:00;;;;;;;0.13;0.13;;;11.60;99.90;;;;;;5039816;28;20044;-72
2022/04/26 11:30:51;;;;;;;0.25;0.25;;;11.40;99.90;;;;;;5040504;28;20025;-72
2022/04/26 11:33:25;;;;;;;0.10;0.10;;;11.30;99.90;;;;;;5040038;28;20041;-72
2022/04/26 11:36:02;;;;;;;0.10;0.10;;;11.20;99.90;;;;;;5039960;28;20570;-72
2022/04/26 11:38:28;;;;;;;0.40;0.40;;;11.10;99.90;;;;;;5040585;28;20029;-72
2022/04/26 11:41:00;;;;;;;1.08;0.90;;;10.70;99.90;;;;;;5039636;28;20079;-72
2022/04/26 11:43:31;;;;;;;0.20;0.20;;;10.20;99.90;;;;;;5040423;28;20501;-71
2022/04/26 11:45:58;;;;;;;0.28;0.25;;;9.40;99.90;;;;;;5039813;28;20048;-73
2022/04/26 11:48:26;;;;;;;0.30;0.30;;;8.60;99.90;;;;;;5038835;28;20111;-72
2022/04/26 11:50:53;;;;;;;0.50;0.50;;;8.20;99.90;;;;;;5040091;28;20032;-72
2022/04/26 11:53:24;;;;;;;0.10;0.10;;;7.80;99.90;;;;;;5039615;28;20389;-72
2022/04/26 11:56:00;;;;;;;0.23;0.23;;;7.80;99.90;;;;;;5039739;28;20037;-72
2022/04/26 11:58:34;;;;;;;1.77;1.00;;;7.70;99.90;;;;;;5039806;28;20280;-72
2022/04/26 12:01:17;;;;;;;0.13;0.13;;;7.60;99.90;;;;;;5039639;28;20028;-71
2022/04/26 12:03:59;;;;;;;0.10;0.10;;;7.40;99.90;;;;;;5039591;28;20103;-72
2022/04/26 12:06:34;;;;;;;0.30;0.30;;;7.30;99.90;;;;;;5039401;28;20033;-72
2022/04/26 12:09:04;;;;;;;0.20;0.20;;;7.60;99.90;;;;;;5040015;28;20025;-72
2022/04/26 12:11:36;;;;;;;0.30;0.30;;;7.50;99.90;;;;;;5039434;28;20514;-72
2022/04/26 12:14:17;;;;;;;0.20;0.20;;;7.60;99.90;;;;;;5014824;28;20255;-71
2022/04/26 12:16:55;;;;;;;0.10;0.10;;;7.50;99.90;;;;;;5029117;28;20132;-72
2022/04/26 12:19:38;;;;;;;0.10;0.10;;;7.70;99.90;;;;;;5040666;28;20040;-71
2022/04/26 12:22:05;;;;;;;0.20;0.20;;;7.90;99.90;;;;;;5042796;28;20025;-76
2022/04/26 12:24:32;;;;;;;0.10;0.10;;;7.90;99.90;;;;;;5029641;28;20998;-72
2022/04/26 12:27:19;;;;;;;0.08;0.08;;;7.70;99.90;;;;;;5039251;28;20036;-72
2022/04/26 12:29:50;;;;;;;0.40;0.38;;;7.70;99.90;;;;;;5039458;28;20037;-73
2022/04/26 12:32:18;;;;;;;0.20;0.20;;;7.60;99.90;;;;;;5012943;28;20495;-72
2022/04/26 12:34:57;;;;;;;0.30;0.30;;;7.60;99.90;;;;;;5029347;28;20039;-72
2022/04/26 12:37:29;;;;;;;0.93;0.65;;;7.50;99.90;;;;;;5031339;28;20136;-72
2022/04/26 12:40:07;;;;;;;1.45;1.35;;;7.60;99.90;;;;;;5039399;28;20091;-72
2022/04/26 12:42:34;;;;;;;1.05;0.75;;;7.40;99.90;;;;;;5039998;28;20477;-72
2022/04/26 12:45:06;;;;;;;0.10;0.10;;;7.30;99.90;;;;;;5039880;28;20029;-71
2022/04/26 12:50:28;;;;;;;0.10;0.10;;;7.40;99.90;;;;;;5029342;28;20032;-72
2022/04/26 12:53:05;;;;;;;0.10;0.10;;;7.70;99.90;;;;;;5039987;28;20063;-72
2022/04/26 12:55:37;;;;;;;0.10;0.10;;;7.60;99.90;;;;;;5040949;28;20435;-72
2022/04/26 12:58:09;;;;;;;0.80;0.80;;;7.80;99.90;;;;;;5029824;28;20065;-72
2022/04/26 13:00:41;;;;;;;0.00;0.00;;;7.90;99.90;;;;;;5030847;28;20029;-75
2022/04/26 13:03:09;;;;;;;0.10;0.10;;;8.00;99.90;;;;;;5042673;28;20064;-72
2022/04/26 13:05:47;;;;;;;0.20;0.20;;;7.90;99.90;;;;;;5013674;28;20614;-72
2022/04/26 13:08:15;;;;;;;0.20;0.20;;;7.80;99.90;;;;;;5034391;28;20637;-71
2022/04/26 13:10:42;;;;;;;0.75;0.70;;;7.60;99.90;;;;;;5044956;28;20392;-72
2022/04/26 13:13:09;;;;;;;0.30;0.30;;;7.40;99.90;;;;;;5043769;28;20094;-72
2022/04/26 13:15:41;;;;;;;3.47;0.73;;;7.20;99.90;;;;;;5044204;28;20029;-72
2022/04/26 13:18:08;;;;;;;0.20;0.20;;;7.20;99.90;;;;;;5019605;28;20029;-72
2022/04/26 13:20:34;;;;;;;0.43;0.43;;;7.00;99.90;;;;;;5042593;28;20047;-72
2022/04/26 13:23:01;;;;;;;0.63;0.63;;;7.00;99.90;;;;;;5034448;28;20484;-72
2022/04/26 13:25:27;;;;;;;0.47;0.47;;;7.00;99.90;;;;;;5043984;28;20040;-71
2022/04/26 13:27:53;;;;;;;0.10;0.10;;;6.90;99.90;;;;;;5013523;28;20082;-72
2022/04/26 13:30:19;;;;;;;0.13;0.13;;;6.90;99.90;;;;;;5044132;28;20111;-72
2022/04/26 13:32:45;;;;;;;0.65;0.35;;;6.80;99.90;;;;;;5043439;28;20135;-72
2022/04/26 13:35:12;;;;;;;0.63;0.63;;;6.80;99.90;;;;;;5017124;28;20477;-70
2022/04/26 13:37:39;;;;;;;0.10;0.10;;;6.90;99.90;;;;;;5042756;28;20033;-70
2022/04/26 13:40:08;;;;;;;0.30;0.30;;;7.10;99.90;;;;;;5035960;28;20029;-71
2022/04/26 13:42:35;;;;;;;0.20;0.20;;;7.30;99.90;;;;;;5037708;28;20036;-69
2022/04/26 13:45:03;;;;;;;0.10;0.10;;;7.50;99.90;;;;;;5044492;28;20411;-73
2022/04/26 13:47:29;;;;;;;0.10;0.10;;;7.40;99.90;;;;;;5034381;28;20033;-71
2022/04/26 13:49:55;;;;;;;0.52;0.52;;;7.60;99.90;;;;;;5043289;28;20721;-71
2022/04/26 13:52:23;;;;;;;0.38;0.38;;;7.50;99.90;;;;;;5044862;28;20059;-71
2022/04/26 13:57:17;;;;;;;0.10;0.10;;;7.20;99.90;;;;;;5112772;22;20057;-75
2022/04/26 13:59:44;;;;;;;0.20;0.20;;;7.30;99.90;;;;;;5034330;28;20534;-75
2022/04/26 14:02:11;;;;;;;0.73;0.70;;;7.50;99.90;;;;;;5041476;28;20353;-76
2022/04/26 14:04:37;;;;;;;0.20;0.20;;;7.20;99.90;;;;;;5032777;28;20040;-75
2022/04/26 14:07:03;;;;;;;0.20;0.20;;;7.10;99.90;;;;;;5031968;28;20028;-75
2022/04/26 14:09:29;;;;;;;0.40;0.40;;;7.00;99.90;;;;;;5033491;28;20032;-75
2022/04/26 14:11:55;;;;;;;0.20;0.20;;;7.00;99.90;;;;;;5033994;28;20118;-73
2022/04/26 14:22:35;;;;;;;0.10;0.10;;;7.10;99.90;;;;;;5042380;28;20029;-73
2022/04/26 14:25:05;;;;;;;0.10;0.10;;;7.20;99.90;;;;;;5042693;28;20102;-73
2022/04/26 14:27:32;;;;;;;0.55;0.55;;;7.30;99.90;;;;;;5029476;28;20047;-73
2022/04/26 14:29:59;;;;;;;0.10;0.10;;;7.50;99.90;;;;;;5042403;28;20087;-73
2022/04/26 14:32:24;;;;;;;0.10;0.10;;;7.60;99.90;;;;;;5034201;28;20074;-73
2022/04/26 14:34:50;;;;;;;0.10;0.10;;;7.80;99.90;;;;;;5030616;28;20477;-73
2022/04/26 14:37:16;;;;;;;0.10;0.10;;;8.00;99.90;;;;;;5042334;28;20432;-73
2022/04/26 14:39:43;;;;;;;0.10;0.10;;;8.10;99.90;;;;;;5042165;28;20033;-73
2022/04/26 14:42:09;;;;;;;0.30;0.30;;;8.30;99.90;;;;;;5042784;28;20053;-73
2022/04/26 14:44:36;;;;;;;0.30;0.30;;;8.30;99.90;;;;;;5042740;28;20033;-74
2022/04/26 14:47:03;;;;;;;0.13;0.13;;;8.10;99.90;;;;;;5031255;28;20048;-73
2022/04/26 14:49:30;;;;;;;0.10;0.10;;;8.20;99.90;;;;;;5042275;28;20032;-74
2022/04/26 14:51:56;;;;;;;0.55;0.55;;;8.40;99.90;;;;;;5041895;28;20040;-73
2022/04/26 14:54:22;;;;;;;0.20;0.20;;;8.40;99.90;;;;;;5041845;28;20454;-73
2022/04/26 14:56:48;;;;;;;0.10;0.10;;;8.50;99.90;;;;;;5042015;28;20057;-74
2022/04/26 14:59:19;;;;;;;0.88;0.82;;;8.50;99.90;;;;;;5041103;28;20053;-73
2022/04/26 15:01:48;;;;;;;0.10;0.10;;;8.50;99.90;;;;;;5016838;28;20028;-73
2022/04/26 15:04:18;;;;;;;0.10;0.10;;;8.50;99.90;;;;;;5041332;28;20568;-74
2022/04/26 15:06:44;;;;;;;0.80;0.80;;;8.60;99.90;;;;;;5042559;28;20396;-73
2022/04/26 15:17:27;;;;;;;0.10;0.10;;;8.80;99.90;;;;;;5041324;28;20090;-74
2022/04/26 15:19:54;;;;;;;0.10;0.10;;;8.90;99.90;;;;;;5030313;28;20033;-74
2022/04/26 15:22:20;;;;;;;0.10;0.10;;;9.10;99.90;;;;;;5041339;28;20021;-74
2022/04/26 15:24:50;;;;;;;0.20;0.20;;;9.00;99.90;;;;;;5041070;28;20033;-73
2022/04/26 15:27:16;;;;;;;0.10;0.10;;;8.90;99.90;;;;;;5041333;28;20040;-74
2022/04/26 15:29:42;;;;;;;0.10;0.10;;;8.90;99.90;;;;;;5040563;28;20102;-74
2022/04/26 15:32:09;;;;;;;0.10;0.10;;;8.90;99.90;;;;;;5041176;28;20144;-74
2022/04/26 15:34:35;;;;;;;0.20;0.20;;;8.70;99.90;;;;;;5031111;28;20025;-74
2022/04/26 15:37:01;;;;;;;0.10;0.10;;;8.80;99.90;;;;;;5030422;28;20065;-74
2022/04/26 15:39:28;;;;;;;0.10;0.10;;;8.80;99.90;;;;;;5040430;28;20092;-74
2022/04/26 15:41:54;;;;;;;0.10;0.10;;;8.90;99.90;;;;;;5031599;28;20127;-75
2022/04/26 15:44:20;;;;;;;0.15;0.15;;;8.90;99.90;;;;;;5041091;28;20050;-74
2022/04/26 15:46:48;;;;;;;0.20;0.20;;;8.90;99.90;;;;;;5031363;28;20033;-74
2022/04/26 15:49:15;;;;;;;0.10;0.10;;;8.90;99.90;;;;;;5040714;28;20040;-74
2022/04/26 15:51:42;;;;;;;0.10;0.10;;;9.00;99.90;;;;;;5040784;28;20032;-74
2022/04/26 15:54:08;;;;;;;0.38;0.38;;;9.20;99.90;;;;;;5030781;28;20112;-74
2022/04/26 15:56:34;;;;;;;0.10;0.10;;;9.20;99.90;;;;;;5040599;28;20193;-74
2022/04/26 15:59:01;;;;;;;0.40;0.40;;;9.20;99.90;;;;;;5027498;28;20037;-76
2022/04/26 16:01:27;;;;;;;0.10;0.10;;;9.30;99.90;;;;;;5030212;28;20052;-75
2022/04/26 16:03:55;;;;;;;0.10;0.10;;;9.20;99.90;;;;;;5041031;28;20036;-74
2022/04/26 16:06:21;;;;;;;0.20;0.20;;;9.40;99.90;;;;;;5039914;28;20033;-74
2022/04/26 16:08:47;;;;;;;0.10;0.10;;;9.40;99.90;;;;;;5041029;28;20037;-74
2022/04/26 16:22:10;;;;;;;0.20;0.20;;;9.70;99.90;;;;;;5040265;28;20032;-74
2022/04/26 16:24:38;;;;;;;0.13;0.13;;;9.80;99.90;;;;;;5039150;28;20090;-74
2022/04/26 16:27:10;;;;;;;0.30;0.30;;;9.90;99.90;;;;;;5029996;28;20586;-74
2022/04/26 16:29:36;;;;;;;1.00;0.95;;;10.10;99.90;;;;;;5041028;28;20097;-74
2022/04/26 16:32:02;;;;;;;1.02;0.98;;;10.30;99.90;;;;;;5030389;28;20048;-74
2022/04/26 16:34:29;;;;;;;0.10;0.10;;;10.40;99.90;;;;;;5041192;28;20501;-75
2022/04/26 16:36:55;;;;;;;0.30;0.30;;;10.40;99.90;;;;;;5039811;28;20029;-74
2022/04/26 16:39:20;;;;;;;0.45;0.45;;;10.30;99.90;;;;;;5030012;28;20036;-74
2022/04/26 16:41:46;;;;;;;0.32;0.32;;;10.40;99.90;;;;;;5040484;28;20025;-74
2022/04/26 16:44:12;;;;;;;0.20;0.20;;;10.30;99.90;;;;;;5040648;28;20056;-74
2022/04/26 16:46:37;;;;;;;0.32;0.32;;;10.10;99.90;;;;;;5039951;28;20504;-74
2022/04/26 16:49:04;;;;;;;0.60;0.60;;;10.20;99.90;;;;;;5040155;28;20033;-74
2022/04/26 16:51:33;;;;;;;3.17;2.00;;;10.00;99.90;;;;;;5032327;28;20538;-74
2022/04/26 16:53:59;;;;;;;4.07;1.55;;;9.80;99.90;;;;;;5030410;28;20033;-74
2022/04/26 16:56:24;;;;;;;1.95;1.85;;;9.70;99.90;;;;;;5039485;28;20041;-74
2022/04/26 16:58:50;;;;;;;0.25;0.25;;;9.70;99.90;;;;;;5040713;28;20083;-74
2022/04/26 17:01:16;;;;;;;0.25;0.25;;;9.70;99.90;;;;;;5030374;28;20124;-74
2022/04/26 17:03:42;;;;;;;0.20;0.20;;;9.60;99.90;;;;;;5049466;28;20048;-74
2022/04/26 17:06:08;;;;;;;0.20;0.20;;;9.70;99.90;;;;;;5051355;28;20044;-74
2022/04/26 17:08:34;;;;;;;0.17;0.17;;;9.80;99.90;;;;;;5033522;28;20029;-74
2022/04/26 17:13:45;;;;;;;0.55;0.55;;;9.80;99.90;;;;;;5050970;28;20025;-74
2022/04/26 17:16:12;;;;;;;0.13;0.13;;;9.80;99.90;;;;;;5033799;28;20437;-75
2022/04/26 17:18:41;;;;;;;0.15;0.15;;;9.70;99.90;;;;;;5051853;28;20029;-75
2022/04/26 17:21:08;;;;;;;0.35;0.35;;;9.70;99.90;;;;;;5051789;28;20013;-75
2022/04/26 17:23:34;;;;;;;0.40;0.40;;;9.60;99.90;;;;;;5051818;28;20610;-74
2022/04/26 17:26:00;;;;;;;0.80;0.77;;;9.50;99.90;;;;;;5033791;28;20029;-74
2022/04/26 17:28:26;;;;;;;0.10;0.10;;;9.60;99.90;;;;;;5051788;28;20029;-74